sensor_id;sensor_type;location;lat;lon;timestamp;P1;durP1;ratioP1;P2;durP2;ratioP2
19998;SDS011;10160;50.926;4.374;2023-05-29T00:00:15;18.85;;;8.32;;
19998;SDS011;10160;50.926;4.374;2023-05-29T00:02:44;17.90;;;8.63;;
19998;SDS011;10160;50.926;4.374;2023-05-29T00:05:10;16.50;;;7.97;;
19998;SDS011;10160;50.926;4.374;2023-05-29T00:07:37;22.02;;;8.00;;
19998;SDS011;10160;50.926;4.374;2023-05-29T00:10:05;21.55;;;8.32;;
19998;SDS011;10160;50.926;4.374;2023-05-29T00:12:31;18.63;;;8.15;;
19998;SDS011;10160;50.926;4.374;2023-05-29T00:14:57;16.50;;;8.20;;
19998;SDS011;10160;50.926;4.374;2023-05-29T00:17:23;25.98;;;8.38;;
19998;SDS011;10160;50.926;4.374;2023-05-29T00:19:49;17.23;;;8.40;;
19998;SDS011;10160;50.926;4.374;2023-05-29T00:22:15;19.55;;;8.48;;
19998;SDS011;10160;50.926;4.374;2023-05-29T00:24:41;19.90;;;8.63;;
19998;SDS011;10160;50.926;4.374;2023-05-29T00:27:08;25.35;;;8.82;;
19998;SDS011;10160;50.926;4.374;2023-05-29T00:29:34;16.02;;;8.30;;
19998;SDS011;10160;50.926;4.374;2023-05-29T00:32:01;15.90;;;7.72;;
19998;SDS011;10160;50.926;4.374;2023-05-29T00:34:27;20.45;;;8.45;;
19998;SDS011;10160;50.926;4.374;2023-05-29T00:36:53;19.17;;;8.52;;
19998;SDS011;10160;50.926;4.374;2023-05-29T00:39:20;21.48;;;9.10;;
19998;SDS011;10160;50.926;4.374;2023-05-29T00:41:47;18.95;;;7.55;;
19998;SDS011;10160;50.926;4.374;2023-05-29T00:44:16;19.42;;;8.15;;
19998;SDS011;10160;50.926;4.374;2023-05-29T00:46:49;18.45;;;7.82;;
19998;SDS011;10160;50.926;4.374;2023-05-29T00:49:20;18.38;;;7.72;;
19998;SDS011;10160;50.926;4.374;2023-05-29T00:51:47;16.00;;;7.80;;
19998;SDS011;10160;50.926;4.374;2023-05-29T00:54:14;14.85;;;7.68;;
19998;SDS011;10160;50.926;4.374;2023-05-29T00:56:52;19.52;;;7.97;;
19998;SDS011;10160;50.926;4.374;2023-05-29T00:59:18;19.70;;;8.13;;
19998;SDS011;10160;50.926;4.374;2023-05-29T01:01:47;20.40;;;8.20;;
19998;SDS011;10160;50.926;4.374;2023-05-29T01:04:14;19.52;;;7.75;;
19998;SDS011;10160;50.926;4.374;2023-05-29T01:06:41;21.33;;;8.38;;
19998;SDS011;10160;50.926;4.374;2023-05-29T01:09:07;19.15;;;8.40;;
19998;SDS011;10160;50.926;4.374;2023-05-29T01:14:09;17.38;;;7.65;;
19998;SDS011;10160;50.926;4.374;2023-05-29T01:22:19;16.38;;;7.90;;
19998;SDS011;10160;50.926;4.374;2023-05-29T01:25:03;19.85;;;8.50;;
19998;SDS011;10160;50.926;4.374;2023-05-29T01:27:37;17.30;;;7.47;;
19998;SDS011;10160;50.926;4.374;2023-05-29T01:30:05;16.92;;;7.68;;
19998;SDS011;10160;50.926;4.374;2023-05-29T01:32:34;18.48;;;8.02;;
19998;SDS011;10160;50.926;4.374;2023-05-29T01:35:01;17.50;;;7.65;;
19998;SDS011;10160;50.926;4.374;2023-05-29T01:37:26;17.98;;;7.70;;
19998;SDS011;10160;50.926;4.374;2023-05-29T01:39:52;13.15;;;7.10;;
19998;SDS011;10160;50.926;4.374;2023-05-29T01:42:18;18.25;;;7.28;;
19998;SDS011;10160;50.926;4.374;2023-05-29T01:44:44;17.25;;;7.43;;
19998;SDS011;10160;50.926;4.374;2023-05-29T01:47:11;20.25;;;7.65;;
19998;SDS011;10160;50.926;4.374;2023-05-29T01:49:38;15.00;;;7.25;;
19998;SDS011;10160;50.926;4.374;2023-05-29T01:52:04;17.50;;;6.88;;
19998;SDS011;10160;50.926;4.374;2023-05-29T01:54:30;24.08;;;7.80;;
19998;SDS011;10160;50.926;4.374;2023-05-29T01:56:56;16.60;;;6.75;;
19998;SDS011;10160;50.926;4.374;2023-05-29T01:59:22;19.08;;;7.10;;
19998;SDS011;10160;50.926;4.374;2023-05-29T02:01:48;15.10;;;7.28;;
19998;SDS011;10160;50.926;4.374;2023-05-29T02:04:14;16.02;;;6.97;;
19998;SDS011;10160;50.926;4.374;2023-05-29T02:06:39;19.10;;;6.80;;
19998;SDS011;10160;50.926;4.374;2023-05-29T02:09:06;22.02;;;7.13;;
19998;SDS011;10160;50.926;4.374;2023-05-29T02:11:31;14.85;;;6.45;;
19998;SDS011;10160;50.926;4.374;2023-05-29T02:13:57;20.00;;;6.82;;
19998;SDS011;10160;50.926;4.374;2023-05-29T02:16:23;21.63;;;7.00;;
19998;SDS011;10160;50.926;4.374;2023-05-29T02:18:48;18.98;;;6.28;;
19998;SDS011;10160;50.926;4.374;2023-05-29T02:21:14;19.30;;;6.65;;
19998;SDS011;10160;50.926;4.374;2023-05-29T02:23:40;18.55;;;6.47;;
19998;SDS011;10160;50.926;4.374;2023-05-29T02:26:05;20.25;;;5.60;;
19998;SDS011;10160;50.926;4.374;2023-05-29T02:28:31;17.70;;;5.80;;
19998;SDS011;10160;50.926;4.374;2023-05-29T02:30:57;16.98;;;6.47;;
19998;SDS011;10160;50.926;4.374;2023-05-29T02:33:22;19.57;;;5.37;;
19998;SDS011;10160;50.926;4.374;2023-05-29T02:35:48;22.07;;;5.83;;
19998;SDS011;10160;50.926;4.374;2023-05-29T02:38:14;16.67;;;4.67;;
19998;SDS011;10160;50.926;4.374;2023-05-29T02:40:40;18.60;;;5.83;;
19998;SDS011;10160;50.926;4.374;2023-05-29T02:43:05;16.47;;;5.60;;
19998;SDS011;10160;50.926;4.374;2023-05-29T02:45:33;15.43;;;5.53;;
19998;SDS011;10160;50.926;4.374;2023-05-29T02:47:58;17.60;;;4.83;;
19998;SDS011;10160;50.926;4.374;2023-05-29T02:50:24;16.93;;;5.23;;
19998;SDS011;10160;50.926;4.374;2023-05-29T02:52:50;22.57;;;6.03;;
19998;SDS011;10160;50.926;4.374;2023-05-29T02:55:15;16.10;;;6.13;;
19998;SDS011;10160;50.926;4.374;2023-05-29T02:57:41;17.13;;;5.07;;
19998;SDS011;10160;50.926;4.374;2023-05-29T03:00:07;22.20;;;5.30;;
19998;SDS011;10160;50.926;4.374;2023-05-29T03:02:34;19.73;;;4.93;;
19998;SDS011;10160;50.926;4.374;2023-05-29T03:05:02;18.75;;;5.30;;
19998;SDS011;10160;50.926;4.374;2023-05-29T03:07:28;21.23;;;5.28;;
19998;SDS011;10160;50.926;4.374;2023-05-29T03:09:54;16.63;;;5.10;;
19998;SDS011;10160;50.926;4.374;2023-05-29T03:12:20;19.27;;;4.57;;
19998;SDS011;10160;50.926;4.374;2023-05-29T03:14:46;14.77;;;4.60;;
19998;SDS011;10160;50.926;4.374;2023-05-29T03:17:12;18.20;;;5.25;;
19998;SDS011;10160;50.926;4.374;2023-05-29T03:19:38;20.73;;;4.63;;
19998;SDS011;10160;50.926;4.374;2023-05-29T03:22:04;14.23;;;4.32;;
19998;SDS011;10160;50.926;4.374;2023-05-29T03:24:29;16.95;;;4.55;;
19998;SDS011;10160;50.926;4.374;2023-05-29T03:26:55;15.05;;;3.92;;
19998;SDS011;10160;50.926;4.374;2023-05-29T03:29:21;16.17;;;4.32;;
19998;SDS011;10160;50.926;4.374;2023-05-29T03:31:46;16.60;;;4.10;;
19998;SDS011;10160;50.926;4.374;2023-05-29T03:34:12;18.25;;;3.97;;
19998;SDS011;10160;50.926;4.374;2023-05-29T03:36:38;14.68;;;3.95;;
19998;SDS011;10160;50.926;4.374;2023-05-29T03:39:04;22.30;;;3.90;;
19998;SDS011;10160;50.926;4.374;2023-05-29T03:41:30;14.38;;;3.78;;
19998;SDS011;10160;50.926;4.374;2023-05-29T03:43:55;17.17;;;4.18;;
19998;SDS011;10160;50.926;4.374;2023-05-29T03:46:21;16.63;;;3.38;;
19998;SDS011;10160;50.926;4.374;2023-05-29T03:48:47;15.90;;;3.60;;
19998;SDS011;10160;50.926;4.374;2023-05-29T03:51:13;17.55;;;4.60;;
19998;SDS011;10160;50.926;4.374;2023-05-29T03:53:38;18.42;;;3.70;;
19998;SDS011;10160;50.926;4.374;2023-05-29T03:56:04;16.85;;;4.13;;
19998;SDS011;10160;50.926;4.374;2023-05-29T03:58:30;14.57;;;3.50;;
19998;SDS011;10160;50.926;4.374;2023-05-29T04:00:56;13.25;;;3.30;;
19998;SDS011;10160;50.926;4.374;2023-05-29T04:03:22;22.48;;;4.15;;
19998;SDS011;10160;50.926;4.374;2023-05-29T04:05:48;17.05;;;3.65;;
19998;SDS011;10160;50.926;4.374;2023-05-29T04:08:13;17.15;;;4.13;;
19998;SDS011;10160;50.926;4.374;2023-05-29T04:10:39;21.63;;;4.45;;
19998;SDS011;10160;50.926;4.374;2023-05-29T04:13:05;19.60;;;4.10;;
19998;SDS011;10160;50.926;4.374;2023-05-29T04:15:33;18.60;;;3.67;;
19998;SDS011;10160;50.926;4.374;2023-05-29T04:17:59;17.65;;;4.30;;
19998;SDS011;10160;50.926;4.374;2023-05-29T04:20:25;19.00;;;4.20;;
19998;SDS011;10160;50.926;4.374;2023-05-29T04:22:51;19.63;;;3.72;;
19998;SDS011;10160;50.926;4.374;2023-05-29T04:25:17;20.90;;;3.50;;
19998;SDS011;10160;50.926;4.374;2023-05-29T04:27:43;12.43;;;2.95;;
19998;SDS011;10160;50.926;4.374;2023-05-29T04:30:13;16.65;;;4.30;;
19998;SDS011;10160;50.926;4.374;2023-05-29T04:32:40;23.05;;;3.95;;
19998;SDS011;10160;50.926;4.374;2023-05-29T04:35:05;16.27;;;3.83;;
19998;SDS011;10160;50.926;4.374;2023-05-29T04:37:31;22.73;;;4.13;;
19998;SDS011;10160;50.926;4.374;2023-05-29T04:40:05;21.93;;;4.17;;
19998;SDS011;10160;50.926;4.374;2023-05-29T04:42:36;14.43;;;3.23;;
19998;SDS011;10160;50.926;4.374;2023-05-29T04:45:02;18.07;;;4.07;;
19998;SDS011;10160;50.926;4.374;2023-05-29T04:47:30;17.80;;;3.55;;
19998;SDS011;10160;50.926;4.374;2023-05-29T04:49:58;16.25;;;3.67;;
19998;SDS011;10160;50.926;4.374;2023-05-29T04:52:24;21.08;;;4.10;;
19998;SDS011;10160;50.926;4.374;2023-05-29T04:54:50;13.15;;;3.13;;
19998;SDS011;10160;50.926;4.374;2023-05-29T04:57:16;19.17;;;3.83;;
19998;SDS011;10160;50.926;4.374;2023-05-29T04:59:41;20.55;;;3.33;;
19998;SDS011;10160;50.926;4.374;2023-05-29T05:02:07;17.92;;;4.63;;
19998;SDS011;10160;50.926;4.374;2023-05-29T05:04:33;20.08;;;3.90;;
19998;SDS011;10160;50.926;4.374;2023-05-29T05:06:58;21.37;;;3.33;;
19998;SDS011;10160;50.926;4.374;2023-05-29T05:09:24;13.53;;;3.63;;
19998;SDS011;10160;50.926;4.374;2023-05-29T05:11:50;17.80;;;3.33;;
19998;SDS011;10160;50.926;4.374;2023-05-29T05:14:15;22.85;;;3.80;;
19998;SDS011;10160;50.926;4.374;2023-05-29T05:16:41;18.77;;;3.75;;
19998;SDS011;10160;50.926;4.374;2023-05-29T05:19:07;17.55;;;3.65;;
19998;SDS011;10160;50.926;4.374;2023-05-29T05:21:32;14.48;;;3.53;;
19998;SDS011;10160;50.926;4.374;2023-05-29T05:23:59;16.80;;;3.57;;
19998;SDS011;10160;50.926;4.374;2023-05-29T05:26:25;17.70;;;4.33;;
19998;SDS011;10160;50.926;4.374;2023-05-29T05:28:54;22.33;;;3.70;;
19998;SDS011;10160;50.926;4.374;2023-05-29T05:31:19;18.30;;;3.20;;
19998;SDS011;10160;50.926;4.374;2023-05-29T05:33:45;21.40;;;4.13;;
19998;SDS011;10160;50.926;4.374;2023-05-29T05:36:11;22.13;;;3.50;;
19998;SDS011;10160;50.926;4.374;2023-05-29T05:38:37;16.47;;;4.00;;
19998;SDS011;10160;50.926;4.374;2023-05-29T05:41:02;17.50;;;3.90;;
19998;SDS011;10160;50.926;4.374;2023-05-29T05:43:28;17.87;;;3.70;;
19998;SDS011;10160;50.926;4.374;2023-05-29T05:45:54;16.40;;;4.17;;
19998;SDS011;10160;50.926;4.374;2023-05-29T05:48:20;16.03;;;3.90;;
19998;SDS011;10160;50.926;4.374;2023-05-29T05:50:46;24.10;;;4.47;;
19998;SDS011;10160;50.926;4.374;2023-05-29T05:53:11;17.00;;;3.73;;
19998;SDS011;10160;50.926;4.374;2023-05-29T05:55:37;14.10;;;3.50;;
19998;SDS011;10160;50.926;4.374;2023-05-29T05:58:03;21.73;;;3.50;;
19998;SDS011;10160;50.926;4.374;2023-05-29T06:00:28;19.00;;;3.70;;
19998;SDS011;10160;50.926;4.374;2023-05-29T06:02:54;17.73;;;3.43;;
19998;SDS011;10160;50.926;4.374;2023-05-29T06:05:20;23.00;;;3.90;;
19998;SDS011;10160;50.926;4.374;2023-05-29T06:07:45;17.73;;;4.17;;
19998;SDS011;10160;50.926;4.374;2023-05-29T06:10:11;15.70;;;3.30;;
19998;SDS011;10160;50.926;4.374;2023-05-29T06:12:38;14.27;;;3.37;;
19998;SDS011;10160;50.926;4.374;2023-05-29T06:15:04;20.73;;;3.90;;
19998;SDS011;10160;50.926;4.374;2023-05-29T06:17:30;18.43;;;4.00;;
19998;SDS011;10160;50.926;4.374;2023-05-29T06:19:56;15.63;;;3.60;;
19998;SDS011;10160;50.926;4.374;2023-05-29T06:22:22;17.77;;;3.53;;
19998;SDS011;10160;50.926;4.374;2023-05-29T06:24:48;16.37;;;3.20;;
19998;SDS011;10160;50.926;4.374;2023-05-29T06:27:13;20.80;;;3.37;;
19998;SDS011;10160;50.926;4.374;2023-05-29T06:29:39;17.13;;;3.23;;
19998;SDS011;10160;50.926;4.374;2023-05-29T06:32:05;15.87;;;3.27;;
19998;SDS011;10160;50.926;4.374;2023-05-29T06:34:31;18.17;;;3.10;;
19998;SDS011;10160;50.926;4.374;2023-05-29T06:36:57;21.57;;;3.77;;
19998;SDS011;10160;50.926;4.374;2023-05-29T06:39:22;13.57;;;3.90;;
19998;SDS011;10160;50.926;4.374;2023-05-29T06:41:49;20.50;;;4.07;;
19998;SDS011;10160;50.926;4.374;2023-05-29T06:44:14;15.47;;;3.10;;
19998;SDS011;10160;50.926;4.374;2023-05-29T06:46:40;12.30;;;2.97;;
19998;SDS011;10160;50.926;4.374;2023-05-29T06:49:05;19.50;;;3.33;;
19998;SDS011;10160;50.926;4.374;2023-05-29T06:51:32;14.70;;;3.23;;
19998;SDS011;10160;50.926;4.374;2023-05-29T06:53:58;14.63;;;2.90;;
19998;SDS011;10160;50.926;4.374;2023-05-29T06:56:24;21.57;;;3.37;;
19998;SDS011;10160;50.926;4.374;2023-05-29T06:58:51;21.67;;;3.60;;
19998;SDS011;10160;50.926;4.374;2023-05-29T07:01:16;12.10;;;2.97;;
19998;SDS011;10160;50.926;4.374;2023-05-29T07:03:42;18.92;;;3.25;;
19998;SDS011;10160;50.926;4.374;2023-05-29T07:06:08;14.67;;;3.73;;
19998;SDS011;10160;50.926;4.374;2023-05-29T07:08:34;20.40;;;3.63;;
19998;SDS011;10160;50.926;4.374;2023-05-29T07:11:00;13.80;;;3.10;;
19998;SDS011;10160;50.926;4.374;2023-05-29T07:13:26;17.15;;;3.65;;
19998;SDS011;10160;50.926;4.374;2023-05-29T07:15:52;19.17;;;2.95;;
19998;SDS011;10160;50.926;4.374;2023-05-29T07:18:18;16.58;;;3.67;;
19998;SDS011;10160;50.926;4.374;2023-05-29T07:20:43;23.10;;;3.70;;
19998;SDS011;10160;50.926;4.374;2023-05-29T07:23:09;13.10;;;2.70;;
19998;SDS011;10160;50.926;4.374;2023-05-29T07:25:35;12.67;;;2.60;;
19998;SDS011;10160;50.926;4.374;2023-05-29T07:28:00;14.52;;;2.92;;
19998;SDS011;10160;50.926;4.374;2023-05-29T07:30:26;15.55;;;3.17;;
19998;SDS011;10160;50.926;4.374;2023-05-29T07:32:52;13.40;;;2.87;;
19998;SDS011;10160;50.926;4.374;2023-05-29T07:35:17;17.20;;;3.08;;
19998;SDS011;10160;50.926;4.374;2023-05-29T07:37:43;15.13;;;3.30;;
19998;SDS011;10160;50.926;4.374;2023-05-29T07:40:09;15.43;;;3.30;;
19998;SDS011;10160;50.926;4.374;2023-05-29T07:42:35;12.80;;;3.15;;
19998;SDS011;10160;50.926;4.374;2023-05-29T07:45:01;17.05;;;3.55;;
19998;SDS011;10160;50.926;4.374;2023-05-29T07:47:26;12.88;;;2.85;;
19998;SDS011;10160;50.926;4.374;2023-05-29T07:49:52;16.05;;;2.97;;
19998;SDS011;10160;50.926;4.374;2023-05-29T07:52:18;17.58;;;3.75;;
19998;SDS011;10160;50.926;4.374;2023-05-29T07:54:44;14.05;;;3.08;;
19998;SDS011;10160;50.926;4.374;2023-05-29T07:57:10;20.08;;;3.13;;
19998;SDS011;10160;50.926;4.374;2023-05-29T07:59:44;15.73;;;2.70;;
19998;SDS011;10160;50.926;4.374;2023-05-29T08:02:10;18.30;;;3.45;;
19998;SDS011;10160;50.926;4.374;2023-05-29T08:04:36;13.13;;;2.70;;
19998;SDS011;10160;50.926;4.374;2023-05-29T08:07:02;25.63;;;3.30;;
19998;SDS011;10160;50.926;4.374;2023-05-29T08:09:31;13.50;;;3.35;;
19998;SDS011;10160;50.926;4.374;2023-05-29T08:11:57;13.93;;;3.53;;
19998;SDS011;10160;50.926;4.374;2023-05-29T08:14:25;16.00;;;3.38;;
19998;SDS011;10160;50.926;4.374;2023-05-29T08:16:50;14.25;;;2.95;;
19998;SDS011;10160;50.926;4.374;2023-05-29T08:19:16;18.35;;;3.15;;
19998;SDS011;10160;50.926;4.374;2023-05-29T08:21:42;21.50;;;3.80;;
19998;SDS011;10160;50.926;4.374;2023-05-29T08:24:08;20.00;;;3.28;;
19998;SDS011;10160;50.926;4.374;2023-05-29T08:26:34;21.80;;;3.90;;
19998;SDS011;10160;50.926;4.374;2023-05-29T08:29:00;14.65;;;3.00;;
19998;SDS011;10160;50.926;4.374;2023-05-29T08:31:26;15.73;;;2.80;;
19998;SDS011;10160;50.926;4.374;2023-05-29T08:33:52;15.18;;;3.65;;
19998;SDS011;10160;50.926;4.374;2023-05-29T08:36:18;24.65;;;3.60;;
19998;SDS011;10160;50.926;4.374;2023-05-29T08:38:50;17.90;;;3.38;;
19998;SDS011;10160;50.926;4.374;2023-05-29T08:41:21;16.25;;;3.45;;
19998;SDS011;10160;50.926;4.374;2023-05-29T08:43:59;14.90;;;2.88;;
19998;SDS011;10160;50.926;4.374;2023-05-29T08:46:28;18.52;;;3.50;;
19998;SDS011;10160;50.926;4.374;2023-05-29T08:48:54;13.75;;;3.63;;
19998;SDS011;10160;50.926;4.374;2023-05-29T08:51:23;16.45;;;4.00;;
19998;SDS011;10160;50.926;4.374;2023-05-29T08:54:01;22.23;;;3.60;;
19998;SDS011;10160;50.926;4.374;2023-05-29T08:56:27;19.05;;;3.88;;
19998;SDS011;10160;50.926;4.374;2023-05-29T08:58:53;15.02;;;3.22;;
19998;SDS011;10160;50.926;4.374;2023-05-29T09:01:19;19.17;;;3.10;;
19998;SDS011;10160;50.926;4.374;2023-05-29T09:03:46;12.57;;;3.28;;
19998;SDS011;10160;50.926;4.374;2023-05-29T09:06:12;11.57;;;3.10;;
19998;SDS011;10160;50.926;4.374;2023-05-29T09:08:38;16.63;;;3.72;;
19998;SDS011;10160;50.926;4.374;2023-05-29T09:11:04;17.40;;;3.38;;
19998;SDS011;10160;50.926;4.374;2023-05-29T09:13:30;12.73;;;3.45;;
19998;SDS011;10160;50.926;4.374;2023-05-29T09:15:59;17.80;;;3.50;;
19998;SDS011;10160;50.926;4.374;2023-05-29T09:18:28;15.30;;;3.13;;
19998;SDS011;10160;50.926;4.374;2023-05-29T09:20:57;17.80;;;3.30;;
19998;SDS011;10160;50.926;4.374;2023-05-29T09:23:25;19.75;;;3.00;;
19998;SDS011;10160;50.926;4.374;2023-05-29T09:25:51;17.77;;;4.18;;
19998;SDS011;10160;50.926;4.374;2023-05-29T09:28:21;15.23;;;3.17;;
19998;SDS011;10160;50.926;4.374;2023-05-29T09:30:48;22.63;;;3.78;;
19998;SDS011;10160;50.926;4.374;2023-05-29T09:33:14;18.38;;;3.60;;
19998;SDS011;10160;50.926;4.374;2023-05-29T09:35:44;15.98;;;3.40;;
19998;SDS011;10160;50.926;4.374;2023-05-29T09:38:12;13.15;;;3.15;;
19998;SDS011;10160;50.926;4.374;2023-05-29T09:40:39;16.45;;;2.75;;
19998;SDS011;10160;50.926;4.374;2023-05-29T09:43:09;12.85;;;3.15;;
19998;SDS011;10160;50.926;4.374;2023-05-29T09:45:40;16.30;;;3.03;;
19998;SDS011;10160;50.926;4.374;2023-05-29T09:48:16;12.63;;;2.88;;
19998;SDS011;10160;50.926;4.374;2023-05-29T09:50:43;19.77;;;3.55;;
19998;SDS011;10160;50.926;4.374;2023-05-29T09:53:19;15.20;;;3.70;;
19998;SDS011;10160;50.926;4.374;2023-05-29T09:55:47;21.60;;;3.60;;
19998;SDS011;10160;50.926;4.374;2023-05-29T09:58:23;13.57;;;3.40;;
19998;SDS011;10160;50.926;4.374;2023-05-29T10:00:50;14.55;;;3.40;;
19998;SDS011;10160;50.926;4.374;2023-05-29T10:03:17;21.00;;;3.25;;
19998;SDS011;10160;50.926;4.374;2023-05-29T10:05:49;13.82;;;2.85;;
19998;SDS011;10160;50.926;4.374;2023-05-29T10:08:17;14.70;;;3.17;;
19998;SDS011;10160;50.926;4.374;2023-05-29T10:10:45;20.67;;;3.00;;
19998;SDS011;10160;50.926;4.374;2023-05-29T10:13:35;15.23;;;3.45;;
19998;SDS011;10160;50.926;4.374;2023-05-29T10:16:04;16.42;;;3.10;;
19998;SDS011;10160;50.926;4.374;2023-05-29T10:18:42;14.48;;;3.08;;
19998;SDS011;10160;50.926;4.374;2023-05-29T10:21:14;14.30;;;2.90;;
19998;SDS011;10160;50.926;4.374;2023-05-29T10:23:40;21.05;;;3.78;;
19998;SDS011;10160;50.926;4.374;2023-05-29T10:26:27;16.15;;;3.15;;
19998;SDS011;10160;50.926;4.374;2023-05-29T10:40:24;14.70;;;2.60;;
19998;SDS011;10160;50.926;4.374;2023-05-29T10:42:51;12.40;;;2.25;;
19998;SDS011;10160;50.926;4.374;2023-05-29T10:46:04;14.27;;;2.58;;
19998;SDS011;10160;50.926;4.374;2023-05-29T10:50:37;10.50;;;2.53;;
19998;SDS011;10160;50.926;4.374;2023-05-29T10:53:03;15.73;;;2.80;;
19998;SDS011;10160;50.926;4.374;2023-05-29T10:55:38;13.02;;;2.63;;
19998;SDS011;10160;50.926;4.374;2023-05-29T10:58:05;14.10;;;2.80;;
19998;SDS011;10160;50.926;4.374;2023-05-29T11:00:40;14.90;;;3.20;;
19998;SDS011;10160;50.926;4.374;2023-05-29T11:03:07;14.23;;;2.88;;
19998;SDS011;10160;50.926;4.374;2023-05-29T11:05:33;10.43;;;2.92;;
19998;SDS011;10160;50.926;4.374;2023-05-29T11:08:00;13.10;;;2.63;;
19998;SDS011;10160;50.926;4.374;2023-05-29T11:13:23;9.23;;;2.63;;
19998;SDS011;10160;50.926;4.374;2023-05-29T11:16:19;11.48;;;2.70;;
19998;SDS011;10160;50.926;4.374;2023-05-29T11:18:54;18.42;;;2.95;;
19998;SDS011;10160;50.926;4.374;2023-05-29T11:23:57;8.85;;;2.55;;
19998;SDS011;10160;50.926;4.374;2023-05-29T11:26:25;14.48;;;2.47;;
19998;SDS011;10160;50.926;4.374;2023-05-29T11:28:52;13.20;;;2.92;;
19998;SDS011;10160;50.926;4.374;2023-05-29T11:31:18;10.43;;;2.75;;
19998;SDS011;10160;50.926;4.374;2023-05-29T11:33:48;13.55;;;2.60;;
19998;SDS011;10160;50.926;4.374;2023-05-29T11:36:16;13.20;;;2.53;;
19998;SDS011;10160;50.926;4.374;2023-05-29T11:38:44;12.32;;;3.10;;
19998;SDS011;10160;50.926;4.374;2023-05-29T11:41:11;9.25;;;2.28;;
19998;SDS011;10160;50.926;4.374;2023-05-29T11:43:36;11.65;;;3.00;;
19998;SDS011;10160;50.926;4.374;2023-05-29T11:46:02;12.88;;;2.53;;
19998;SDS011;10160;50.926;4.374;2023-05-29T11:48:44;11.88;;;2.80;;
19998;SDS011;10160;50.926;4.374;2023-05-29T11:51:10;11.23;;;2.83;;
19998;SDS011;10160;50.926;4.374;2023-05-29T11:53:39;11.70;;;2.80;;
19998;SDS011;10160;50.926;4.374;2023-05-29T11:56:07;14.07;;;2.47;;
19998;SDS011;10160;50.926;4.374;2023-05-29T11:58:35;10.70;;;2.50;;
19998;SDS011;10160;50.926;4.374;2023-05-29T12:01:02;9.07;;;2.42;;
19998;SDS011;10160;50.926;4.374;2023-05-29T12:03:28;13.75;;;2.63;;
19998;SDS011;10160;50.926;4.374;2023-05-29T12:05:54;10.52;;;2.90;;
19998;SDS011;10160;50.926;4.374;2023-05-29T12:08:24;13.18;;;2.75;;
19998;SDS011;10160;50.926;4.374;2023-05-29T12:10:50;13.05;;;2.30;;
19998;SDS011;10160;50.926;4.374;2023-05-29T12:13:21;15.30;;;2.88;;
19998;SDS011;10160;50.926;4.374;2023-05-29T12:15:49;10.20;;;3.13;;
19998;SDS011;10160;50.926;4.374;2023-05-29T12:18:17;18.13;;;3.22;;
19998;SDS011;10160;50.926;4.374;2023-05-29T12:20:43;11.73;;;2.85;;
19998;SDS011;10160;50.926;4.374;2023-05-29T12:23:09;13.93;;;2.47;;
19998;SDS011;10160;50.926;4.374;2023-05-29T12:25:37;11.93;;;2.55;;
19998;SDS011;10160;50.926;4.374;2023-05-29T12:28:03;9.75;;;2.20;;
19998;SDS011;10160;50.926;4.374;2023-05-29T12:30:29;12.38;;;3.17;;
19998;SDS011;10160;50.926;4.374;2023-05-29T12:32:55;15.60;;;2.88;;
19998;SDS011;10160;50.926;4.374;2023-05-29T12:35:22;15.68;;;3.40;;
19998;SDS011;10160;50.926;4.374;2023-05-29T12:37:53;12.88;;;3.00;;
19998;SDS011;10160;50.926;4.374;2023-05-29T12:40:24;11.88;;;3.00;;
19998;SDS011;10160;50.926;4.374;2023-05-29T12:43:01;12.00;;;2.75;;
19998;SDS011;10160;50.926;4.374;2023-05-29T12:45:32;9.73;;;2.80;;
19998;SDS011;10160;50.926;4.374;2023-05-29T12:48:05;12.73;;;2.60;;
19998;SDS011;10160;50.926;4.374;2023-05-29T12:50:33;13.60;;;3.13;;
19998;SDS011;10160;50.926;4.374;2023-05-29T12:53:00;15.73;;;3.40;;
19998;SDS011;10160;50.926;4.374;2023-05-29T12:55:28;13.23;;;3.03;;
19998;SDS011;10160;50.926;4.374;2023-05-29T12:57:55;11.77;;;3.75;;
19998;SDS011;10160;50.926;4.374;2023-05-29T13:00:21;12.15;;;3.00;;
19998;SDS011;10160;50.926;4.374;2023-05-29T13:02:48;9.35;;;2.42;;
19998;SDS011;10160;50.926;4.374;2023-05-29T13:05:15;15.52;;;2.78;;
19998;SDS011;10160;50.926;4.374;2023-05-29T13:07:44;16.75;;;3.38;;
19998;SDS011;10160;50.926;4.374;2023-05-29T13:10:13;16.83;;;2.78;;
19998;SDS011;10160;50.926;4.374;2023-05-29T13:12:39;11.55;;;2.83;;
19998;SDS011;10160;50.926;4.374;2023-05-29T13:15:09;13.77;;;2.58;;
19998;SDS011;10160;50.926;4.374;2023-05-29T13:17:36;11.18;;;2.60;;
19998;SDS011;10160;50.926;4.374;2023-05-29T13:20:02;17.77;;;3.50;;
19998;SDS011;10160;50.926;4.374;2023-05-29T13:22:32;13.02;;;3.22;;
19998;SDS011;10160;50.926;4.374;2023-05-29T13:24:58;11.88;;;2.95;;
19998;SDS011;10160;50.926;4.374;2023-05-29T13:27:24;13.02;;;2.70;;
19998;SDS011;10160;50.926;4.374;2023-05-29T13:29:51;14.20;;;3.40;;
19998;SDS011;10160;50.926;4.374;2023-05-29T13:32:17;14.23;;;2.85;;
19998;SDS011;10160;50.926;4.374;2023-05-29T13:34:42;14.75;;;2.83;;
19998;SDS011;10160;50.926;4.374;2023-05-29T13:37:08;13.32;;;3.03;;
19998;SDS011;10160;50.926;4.374;2023-05-29T13:39:34;12.35;;;2.80;;
19998;SDS011;10160;50.926;4.374;2023-05-29T13:41:59;12.57;;;2.35;;
19998;SDS011;10160;50.926;4.374;2023-05-29T13:44:25;10.60;;;2.67;;
19998;SDS011;10160;50.926;4.374;2023-05-29T13:46:51;26.45;;;3.13;;
19998;SDS011;10160;50.926;4.374;2023-05-29T13:49:17;17.85;;;3.20;;
19998;SDS011;10160;50.926;4.374;2023-05-29T13:51:43;11.75;;;2.42;;
19998;SDS011;10160;50.926;4.374;2023-05-29T13:54:11;15.68;;;2.95;;
19998;SDS011;10160;50.926;4.374;2023-05-29T13:56:37;8.23;;;2.20;;
19998;SDS011;10160;50.926;4.374;2023-05-29T13:59:03;12.75;;;2.63;;
19998;SDS011;10160;50.926;4.374;2023-05-29T14:01:31;11.23;;;3.03;;
19998;SDS011;10160;50.926;4.374;2023-05-29T14:03:58;13.32;;;2.70;;
19998;SDS011;10160;50.926;4.374;2023-05-29T14:06:24;14.55;;;3.38;;
19998;SDS011;10160;50.926;4.374;2023-05-29T14:08:50;12.27;;;2.85;;
19998;SDS011;10160;50.926;4.374;2023-05-29T14:11:16;14.77;;;3.47;;
19998;SDS011;10160;50.926;4.374;2023-05-29T14:13:42;14.65;;;3.03;;
19998;SDS011;10160;50.926;4.374;2023-05-29T14:16:07;13.23;;;2.70;;
19998;SDS011;10160;50.926;4.374;2023-05-29T14:18:33;12.75;;;2.78;;
19998;SDS011;10160;50.926;4.374;2023-05-29T14:20:59;12.27;;;3.47;;
19998;SDS011;10160;50.926;4.374;2023-05-29T14:23:25;14.27;;;2.67;;
19998;SDS011;10160;50.926;4.374;2023-05-29T14:25:51;14.20;;;2.45;;
19998;SDS011;10160;50.926;4.374;2023-05-29T14:28:16;14.20;;;2.60;;
19998;SDS011;10160;50.926;4.374;2023-05-29T14:30:42;9.45;;;2.47;;
19998;SDS011;10160;50.926;4.374;2023-05-29T14:33:08;14.10;;;3.00;;
19998;SDS011;10160;50.926;4.374;2023-05-29T14:35:34;10.70;;;2.70;;
19998;SDS011;10160;50.926;4.374;2023-05-29T14:37:59;11.73;;;2.83;;
19998;SDS011;10160;50.926;4.374;2023-05-29T14:40:25;9.70;;;2.75;;
19998;SDS011;10160;50.926;4.374;2023-05-29T14:42:51;11.02;;;2.90;;
19998;SDS011;10160;50.926;4.374;2023-05-29T14:45:17;12.30;;;2.75;;
19998;SDS011;10160;50.926;4.374;2023-05-29T14:47:42;15.52;;;2.85;;
19998;SDS011;10160;50.926;4.374;2023-05-29T14:50:08;11.07;;;2.55;;
19998;SDS011;10160;50.926;4.374;2023-05-29T14:52:35;11.88;;;2.35;;
19998;SDS011;10160;50.926;4.374;2023-05-29T14:55:04;14.32;;;2.83;;
19998;SDS011;10160;50.926;4.374;2023-05-29T14:57:30;14.02;;;2.65;;
19998;SDS011;10160;50.926;4.374;2023-05-29T15:00:02;13.20;;;2.75;;
19998;SDS011;10160;50.926;4.374;2023-05-29T15:02:31;9.32;;;2.55;;